createdAt,value
2023-03-06T08:13:09.853Z,40.05
2023-03-06T08:15:17.504Z,39.64
2023-03-06T08:17:21.915Z,39.58
2023-03-06T08:19:26.375Z,39.38
2023-03-06T08:21:31.123Z,39.59
2023-03-06T08:23:35.927Z,39.32
2023-03-06T08:25:40.524Z,39.39
2023-03-06T08:27:46.935Z,39.50
2023-03-06T08:29:51.821Z,39.14
2023-03-06T08:31:58.900Z,39.40
2023-03-06T08:34:04.193Z,39.20
2023-03-06T08:36:09.051Z,39.19
2023-03-06T08:38:13.486Z,39.21
2023-03-06T08:40:18.102Z,39.08
2023-03-06T08:42:22.553Z,38.93
2023-03-06T08:44:27.148Z,39.18
2023-03-06T08:46:32.516Z,39.01
2023-03-06T08:48:39.566Z,39.06
2023-03-06T08:50:44.020Z,39.14
2023-03-06T08:52:48.558Z,39.21
2023-03-06T08:54:53.020Z,39.06
2023-03-06T08:56:57.791Z,39.33
2023-03-06T08:59:06.544Z,39.14
2023-03-06T09:01:15.305Z,39.12
2023-03-06T09:03:19.874Z,38.91
2023-03-06T09:05:27.069Z,39.26
2023-03-06T09:07:32.232Z,39.25
2023-03-06T09:09:36.822Z,39.11
2023-03-06T09:11:41.644Z,38.97
2023-03-06T09:13:46.161Z,38.92
2023-03-06T09:15:50.639Z,39.17
2023-03-06T09:17:55.258Z,38.85
2023-03-06T09:19:59.713Z,39.14
2023-03-06T09:22:06.786Z,39.07
2023-03-06T09:24:11.705Z,38.99
2023-03-06T09:26:16.751Z,39.08
2023-03-06T09:28:21.408Z,38.98
2023-03-06T09:30:25.993Z,39.12
2023-03-06T09:32:30.723Z,39.15
2023-03-06T09:34:35.198Z,39.00
2023-03-06T09:36:54.983Z,38.92
2023-03-06T09:39:03.372Z,38.96
2023-03-06T09:41:11.222Z,38.83
2023-03-06T09:43:21.800Z,38.90
2023-03-06T09:45:26.209Z,38.93
2023-03-06T09:47:41.078Z,39.00
2023-03-06T09:49:54.552Z,38.90
2023-03-06T09:52:04.028Z,38.94
2023-03-06T09:54:14.858Z,39.18
2023-03-06T09:56:21.328Z,39.17
2023-03-06T09:58:27.152Z,39.24
2023-03-06T10:00:35.898Z,39.12
2023-03-06T10:02:43.673Z,39.11
2023-03-06T10:04:51.991Z,39.00
2023-03-06T10:07:00.994Z,39.23
2023-03-06T10:09:07.695Z,39.03
2023-03-06T10:11:17.463Z,39.06
2023-03-06T10:13:25.672Z,38.84
2023-03-06T10:15:33.540Z,38.89
2023-03-06T10:17:41.831Z,38.88
2023-03-06T10:19:48.029Z,38.87
2023-03-06T10:21:59.197Z,38.88
2023-03-06T10:24:12.216Z,38.90
2023-03-06T10:31:21.250Z,38.73
2023-03-06T10:33:31.978Z,38.93
2023-03-06T10:35:43.213Z,38.64
2023-03-06T10:37:47.656Z,38.82
2023-03-06T10:39:54.746Z,38.89
2023-03-06T10:42:01.845Z,38.70
2023-03-06T10:44:21.691Z,38.74
2023-03-06T10:46:30.194Z,38.76
2023-03-06T10:48:36.215Z,38.57
2023-03-06T10:50:40.836Z,38.62
2023-03-06T10:52:45.254Z,38.57
2023-03-06T10:54:49.768Z,38.84
2023-03-06T10:56:54.093Z,38.75
2023-03-06T10:59:10.793Z,38.74
2023-03-06T11:01:22.017Z,38.43
2023-03-06T11:03:26.943Z,38.37
2023-03-06T11:05:31.276Z,38.70
2023-03-06T11:07:36.280Z,38.65
2023-03-06T11:09:40.918Z,38.50
2023-03-06T11:11:45.415Z,38.27
2023-03-06T11:13:58.416Z,38.70
2023-03-06T11:16:08.016Z,38.52
2023-03-06T11:18:28.751Z,38.58
2023-03-06T11:20:50.433Z,38.45
2023-03-06T11:22:58.320Z,38.35
2023-03-06T11:25:02.884Z,38.30
2023-03-06T11:27:16.764Z,38.27
2023-03-06T11:29:27.296Z,38.42
2023-03-06T11:31:35.237Z,38.54
2023-03-06T11:33:42.798Z,38.53
2023-03-06T11:35:52.466Z,38.34
2023-03-06T11:37:59.287Z,38.22
2023-03-06T11:40:07.541Z,38.41
2023-03-06T11:42:16.087Z,38.54
2023-03-06T11:44:24.711Z,38.53
2023-03-06T11:46:31.049Z,38.32
2023-03-06T11:48:42.340Z,38.17
2023-03-06T11:50:47.635Z,38.15
2023-03-06T11:52:54.628Z,38.37
2023-03-06T11:55:00.563Z,38.52
2023-03-06T11:57:07.245Z,38.40
2023-03-06T11:59:20.814Z,38.53
2023-03-06T12:01:27.040Z,38.46
2023-03-06T12:03:46.452Z,38.23
2023-03-06T12:05:55.228Z,38.51
2023-03-06T12:08:04.224Z,38.37
2023-03-06T12:10:15.554Z,38.15
2023-03-06T12:12:27.779Z,38.19
2023-03-06T12:14:40.174Z,38.36
2023-03-06T12:17:04.164Z,38.32
2023-03-06T12:19:16.262Z,38.22
2023-03-06T12:21:28.520Z,38.40
2023-03-06T12:23:42.768Z,38.67
2023-03-06T12:25:53.098Z,38.51
2023-03-06T12:28:02.347Z,38.65
2023-03-06T12:30:18.894Z,38.62
2023-03-06T12:32:29.078Z,38.37
2023-03-06T12:34:40.129Z,38.54
2023-03-06T12:36:54.363Z,38.68
2023-03-06T12:39:02.672Z,38.31
2023-03-06T12:41:15.739Z,38.43
2023-03-06T12:43:44.023Z,38.31
2023-03-06T12:45:49.783Z,38.53
2023-03-06T12:47:56.559Z,38.67
2023-03-06T12:50:03.792Z,38.34
2023-03-06T12:52:12.490Z,38.65
2023-03-06T12:54:17.227Z,38.43
2023-03-06T12:56:22.409Z,38.57
2023-03-06T12:58:49.002Z,38.35
2023-03-06T13:01:04.816Z,38.31
2023-03-06T13:03:16.596Z,38.35
2023-03-06T13:05:47.917Z,38.59
2023-03-06T13:08:03.080Z,38.50
2023-03-06T13:10:13.968Z,38.40
2023-03-06T13:12:27.267Z,38.47
2023-03-06T13:14:35.831Z,38.54
2023-03-06T13:16:41.990Z,38.80
2023-03-06T13:18:51.736Z,38.62
2023-03-06T13:20:56.354Z,38.43
2023-03-06T13:23:23.565Z,38.41
2023-03-06T13:25:39.972Z,38.57
2023-03-06T13:27:48.192Z,38.39
2023-03-06T13:30:18.535Z,38.39
2023-03-06T13:32:32.049Z,38.33
2023-03-06T13:34:38.169Z,38.55
2023-03-06T13:36:42.728Z,38.44
2023-03-06T13:39:11.455Z,38.35
2023-03-06T13:41:30.914Z,38.75
2023-03-06T13:43:45.350Z,38.60
2023-03-06T13:45:50.780Z,38.55
2023-03-06T13:50:36.942Z,38.60
2023-03-06T13:52:47.451Z,38.59
2023-03-06T13:54:58.204Z,38.76
2023-03-06T13:57:26.429Z,38.92
2023-03-06T13:59:42.246Z,38.59
2023-03-06T14:01:51.648Z,38.98
2023-03-06T14:04:06.486Z,38.78
2023-03-06T14:06:25.979Z,38.87
2023-03-06T14:08:31.409Z,38.83
2023-03-06T14:10:37.223Z,38.50
2023-03-06T14:12:43.473Z,38.83
2023-03-06T14:14:53.615Z,38.71
2023-03-06T14:16:58.739Z,38.65
2023-03-06T14:19:03.521Z,38.51
2023-03-06T14:21:11.952Z,38.65
2023-03-06T14:23:17.461Z,38.63
2023-03-06T14:25:26.474Z,38.73
2023-03-06T14:27:41.046Z,38.76
2023-03-06T14:29:46.640Z,38.47
2023-03-06T14:31:54.553Z,38.58
2023-03-06T14:33:59.767Z,38.74
2023-03-06T14:36:07.755Z,38.47
2023-03-06T14:38:16.847Z,38.39
2023-03-06T14:40:22.601Z,38.45
2023-03-06T14:42:27.779Z,38.46
2023-03-06T14:44:32.400Z,38.37
2023-03-06T14:46:36.924Z,38.28
2023-03-06T14:48:45.446Z,38.57
2023-03-06T14:50:52.877Z,38.17
2023-03-06T14:52:58.784Z,38.37
2023-03-06T14:55:03.331Z,38.58
2023-03-06T14:57:09.324Z,38.49
2023-03-06T15:56:12.999Z,38.01
2023-03-06T15:58:20.542Z,38.36
2023-03-06T16:27:01.690Z,37.97
2023-03-06T16:29:20.963Z,38.11
2023-03-06T16:39:44.077Z,38.36
2023-03-06T16:41:49.470Z,38.13
2023-03-06T16:43:54.185Z,37.90
2023-03-06T16:45:58.771Z,38.08
2023-03-06T16:48:06.874Z,38.19
2023-03-06T17:03:43.536Z,38.46
2023-03-06T17:05:48.127Z,38.41
2023-03-06T17:07:53.146Z,38.23
2023-03-06T17:09:57.716Z,38.28
2023-03-06T17:12:02.268Z,38.40
2023-03-06T17:14:09.618Z,38.14
2023-03-06T17:16:16.137Z,38.40
2023-03-06T17:18:20.861Z,38.34
2023-03-06T17:20:25.388Z,38.49
2023-03-06T17:22:30.225Z,38.27
2023-03-06T17:24:34.770Z,38.25
2023-03-06T17:26:40.259Z,38.51
2023-03-06T17:28:45.128Z,38.22
2023-03-06T17:30:52.431Z,38.32
2023-03-06T17:32:58.347Z,38.51
2023-03-06T17:35:02.832Z,38.25
2023-03-06T17:37:07.804Z,38.28
2023-03-06T17:39:12.929Z,38.43
2023-03-06T17:41:17.449Z,38.58
2023-03-06T17:43:21.910Z,38.58
2023-03-06T17:45:29.081Z,38.34
2023-03-06T17:47:36.219Z,38.65
2023-03-06T18:41:57.165Z,38.92
2023-03-06T18:44:39.832Z,38.90
2023-03-06T18:46:46.719Z,38.74
2023-03-06T18:48:51.870Z,38.79
2023-03-06T18:50:57.005Z,38.74
2023-03-06T18:53:02.057Z,38.64
2023-03-06T19:17:02.898Z,38.84
2023-03-06T20:03:50.806Z,38.72
2023-03-06T20:05:56.297Z,38.86
2023-03-06T20:08:03.586Z,38.90
2023-03-06T20:10:08.879Z,38.80
2023-03-06T20:12:14.535Z,38.83
2023-03-06T20:14:19.067Z,38.74
2023-03-06T20:16:23.658Z,38.67
2023-03-06T20:18:28.417Z,38.77
2023-03-06T20:20:37.781Z,38.93
2023-03-06T20:22:42.447Z,38.61
2023-03-06T20:24:47.038Z,38.75
2023-03-06T20:26:53.597Z,38.72
2023-03-06T20:28:59.381Z,38.97
2023-03-06T20:31:08.888Z,38.95
2023-03-06T20:33:15.476Z,38.77
2023-03-06T20:35:20.359Z,38.88
2023-03-06T20:37:27.572Z,38.86
2023-03-06T20:39:32.200Z,39.04
2023-03-06T20:41:36.801Z,38.83
2023-03-06T20:43:41.374Z,38.80
2023-03-06T20:45:45.986Z,38.95
2023-03-06T20:47:50.796Z,38.65
2023-03-06T20:49:55.562Z,38.96
2023-03-06T20:52:00.196Z,39.03
2023-03-06T20:54:08.135Z,38.83
2023-03-06T20:56:14.434Z,38.89
2023-03-06T20:58:19.022Z,38.74
2023-03-06T21:00:23.884Z,38.91
2023-03-06T21:02:28.572Z,38.76
2023-03-06T21:04:33.207Z,39.08
2023-03-06T21:06:37.738Z,39.07
2023-03-06T21:08:42.229Z,38.85
2023-03-06T21:10:49.749Z,39.02
2023-03-06T21:12:54.432Z,39.00
2023-03-06T21:20:55.613Z,38.95
2023-03-06T22:11:37.711Z,39.33
2023-03-06T22:13:42.304Z,39.16
2023-03-06T22:15:53.171Z,39.20
2023-03-06T22:17:57.905Z,39.20
2023-03-06T22:20:02.357Z,39.47
2023-03-06T22:22:08.717Z,39.20
2023-03-06T22:24:14.304Z,39.25
2023-03-06T22:26:18.900Z,39.17
2023-03-06T22:28:25.908Z,39.48
2023-03-06T22:30:30.420Z,39.29
2023-03-06T22:32:35.013Z,39.46
2023-03-06T22:34:39.563Z,39.38
2023-03-06T22:36:44.285Z,39.43
2023-03-06T22:38:49.479Z,39.14
2023-03-06T22:40:53.892Z,39.13
2023-03-06T22:42:58.367Z,39.54
2023-03-06T22:45:05.431Z,39.45
2023-03-06T22:47:10.152Z,39.19
2023-03-06T22:49:16.922Z,39.49
2023-03-06T22:51:22.143Z,39.30
2023-03-06T22:53:26.625Z,39.43
2023-03-06T22:55:31.189Z,39.51
2023-03-06T22:57:35.792Z,39.18
2023-03-06T22:59:40.262Z,39.22
2023-03-06T23:01:47.267Z,39.21
2023-03-06T23:03:53.073Z,39.36
2023-03-06T23:05:57.477Z,39.43
2023-03-06T23:08:01.991Z,39.41
2023-03-06T23:10:07.266Z,39.35
2023-03-06T23:12:30.638Z,39.52
2023-03-06T23:14:53.693Z,39.52
2023-03-06T23:17:19.395Z,39.44
2023-03-06T23:19:42.431Z,39.48
2023-03-06T23:22:05.649Z,39.30
2023-03-06T23:24:28.753Z,39.44
2023-03-06T23:26:34.273Z,39.37
2023-03-06T23:28:38.768Z,39.45
2023-03-06T23:30:43.815Z,39.15
2023-03-06T23:32:50.861Z,39.41
2023-03-06T23:34:55.375Z,39.42
2023-03-06T23:36:59.848Z,39.61
2023-03-06T23:39:04.596Z,39.37
2023-03-06T23:41:09.793Z,39.51
2023-03-06T23:43:14.222Z,39.33
2023-03-06T23:45:18.744Z,39.40
2023-03-06T23:47:23.290Z,39.49
2023-03-06T23:49:30.445Z,39.45
2023-03-06T23:51:34.891Z,39.37
2023-03-06T23:53:39.487Z,39.36
2023-03-06T23:55:44.259Z,39.61
2023-03-06T23:57:48.933Z,39.39
2023-03-06T23:59:53.517Z,39.27
